Time;durP1;ratioP1;P1;durP2;ratioP2;P2;SDS_P1;SDS_P2;PMS_P1;PMS_P2;Temp;Humidity;BMP_temperature;BMP_pressure;BME280_temperature;BME280_humidity;BME280_pressure;Samples;Min_cycle;Max_cycle;Signal;HPM_P1;HPM_P2
2022/11/04 04:00:38;;;;;;;0.60;0.53;;;11.90;79.40;;;;;;6192363;22;20449;31
2022/11/04 04:03:10;;;;;;;0.60;0.50;;;11.70;80.00;;;;;;4919001;29;20617;-81
2022/11/04 04:05:43;;;;;;;0.57;0.50;;;11.70;79.90;;;;;;4920122;29;20866;-80
2022/11/04 04:08:15;;;;;;;0.60;0.60;;;11.80;79.60;;;;;;4921090;29;20434;-81
2022/11/04 04:10:59;;;;;;;0.60;0.60;;;11.60;79.60;;;;;;4919872;29;21025;-80
2022/11/04 04:13:35;;;;;;;0.60;0.60;;;11.70;80.00;;;;;;4920518;29;20479;-81
2022/11/04 04:16:08;;;;;;;0.60;0.50;;;11.80;80.00;;;;;;4920444;29;20437;-81
2022/11/04 04:18:40;;;;;;;0.60;0.50;;;11.80;80.00;;;;;;4919458;29;20449;-80
2022/11/04 04:21:11;;;;;;;0.70;0.50;;;11.80;79.50;;;;;;4919290;29;20972;-81
2022/11/04 04:29:10;;;;;;;0.60;0.50;;;11.90;79.70;;;;;;4920040;29;20412;-81
2022/11/04 04:31:49;;;;;;;0.60;0.53;;;11.80;79.80;;;;;;4920059;29;20500;-81
2022/11/04 04:34:17;;;;;;;0.60;0.53;;;11.70;79.40;;;;;;4919765;29;20429;-81
2022/11/04 04:36:47;;;;;;;0.70;0.60;;;11.70;80.00;;;;;;4919861;29;20956;-81
2022/11/04 04:45:02;;;;;;;0.60;0.60;;;11.60;80.00;;;;;;4919586;29;20873;-81
2022/11/04 04:47:38;;;;;;;0.60;0.60;;;11.60;80.00;;;;;;4919197;29;20437;-81
2022/11/04 04:50:07;;;;;;;0.60;0.53;;;11.60;79.60;;;;;;4919029;29;20429;-81
2022/11/04 04:52:37;;;;;;;0.60;0.60;;;11.50;79.50;;;;;;4918896;29;20495;-81
2022/11/04 04:55:05;;;;;;;0.70;0.60;;;11.50;79.70;;;;;;4919896;29;20928;-81
2022/11/04 04:57:32;;;;;;;0.60;0.50;;;11.50;79.50;;;;;;4920267;29;20476;-81
2022/11/04 04:59:58;;;;;;;0.70;0.70;;;11.50;79.70;;;;;;4920198;29;20983;-80
2022/11/04 05:02:25;;;;;;;0.60;0.50;;;11.50;79.60;;;;;;4919745;29;20500;-81
2022/11/04 05:04:55;;;;;;;0.60;0.50;;;11.60;79.70;;;;;;4919508;29;20449;-80
2022/11/04 05:07:21;;;;;;;0.60;0.50;;;11.60;79.50;;;;;;4920478;29;20453;-81
2022/11/04 05:09:49;;;;;;;0.60;0.60;;;11.70;79.50;;;;;;4919125;29;20445;-80
2022/11/04 05:12:15;;;;;;;0.70;0.70;;;11.70;79.40;;;;;;4918156;29;20492;-81
2022/11/04 05:14:42;;;;;;;0.60;0.60;;;11.70;79.60;;;;;;4917823;29;20445;-80
2022/11/04 05:17:09;;;;;;;0.60;0.50;;;11.80;79.30;;;;;;4917824;29;20944;-80
2022/11/04 05:19:35;;;;;;;0.60;0.60;;;11.80;79.30;;;;;;4917982;29;20816;-80
2022/11/04 05:22:03;;;;;;;0.60;0.53;;;11.80;79.50;;;;;;4918506;29;20476;-80
2022/11/04 05:24:30;;;;;;;0.60;0.50;;;11.80;79.60;;;;;;4917865;29;20457;-80
2022/11/04 05:26:57;;;;;;;0.60;0.60;;;11.80;79.60;;;;;;4918077;29;20449;-80
2022/11/04 05:29:24;;;;;;;0.60;0.60;;;11.70;79.50;;;;;;4917286;29;20457;-79
2022/11/04 05:31:50;;;;;;;0.97;0.60;;;11.40;81.30;;;;;;4918446;29;20489;-80
2022/11/04 05:34:17;;;;;;;0.60;0.60;;;11.40;81.30;;;;;;4919082;29;20952;-80
2022/11/04 05:36:44;;;;;;;0.57;0.50;;;11.40;81.10;;;;;;4919184;28;20453;-80
2022/11/04 05:39:13;;;;;;;0.60;0.50;;;11.40;80.80;;;;;;4920901;29;20456;-80
2022/11/04 05:41:40;;;;;;;0.57;0.53;;;11.30;80.80;;;;;;4921870;29;20837;-80
2022/11/04 05:44:08;;;;;;;0.60;0.53;;;11.20;80.90;;;;;;4923288;29;20480;-80
2022/11/04 05:46:35;;;;;;;0.73;0.50;;;11.10;81.40;;;;;;4922471;29;20457;-80
2022/11/04 05:49:01;;;;;;;1.07;0.70;;;11.00;81.60;;;;;;4922357;29;20464;-80
2022/11/04 05:51:29;;;;;;;0.60;0.60;;;10.80;82.20;;;;;;4922833;29;20492;-80
2022/11/04 05:53:56;;;;;;;0.70;0.57;;;10.80;82.50;;;;;;4922654;29;20456;-80
2022/11/04 05:56:24;;;;;;;0.60;0.60;;;10.90;82.60;;;;;;4918865;29;20456;-79
2022/11/04 05:58:51;;;;;;;0.60;0.60;;;11.00;82.50;;;;;;4922461;29;20452;-80
2022/11/04 06:01:30;;;;;;;0.70;0.70;;;11.10;82.20;;;;;;4922598;29;20851;-80
2022/11/04 06:03:58;;;;;;;0.70;0.70;;;11.10;81.90;;;;;;4919977;29;20500;-80
2022/11/04 06:06:28;;;;;;;0.60;0.53;;;11.20;81.50;;;;;;4920116;29;20450;-79
2022/11/04 06:08:55;;;;;;;0.60;0.50;;;11.30;81.40;;;;;;4918635;29;20468;-79
2022/11/04 06:11:24;;;;;;;0.50;0.50;;;11.30;81.00;;;;;;4919465;29;20859;-79
2022/11/04 06:13:53;;;;;;;0.60;0.50;;;11.40;80.90;;;;;;4922563;29;20446;-80
2022/11/04 06:16:20;;;;;;;0.60;0.50;;;11.40;80.70;;;;;;4924742;29;20449;-80
2022/11/04 06:18:46;;;;;;;0.60;0.50;;;11.40;80.60;;;;;;4925900;29;20457;-80
2022/11/04 06:21:24;;;;;;;0.70;0.60;;;11.50;80.50;;;;;;4926467;29;20465;-80
2022/11/04 06:23:52;;;;;;;0.60;0.50;;;11.50;80.40;;;;;;4927391;29;20434;-80
2022/11/04 06:26:20;;;;;;;0.57;0.50;;;11.40;80.40;;;;;;4925116;29;20584;-81
2022/11/04 06:28:48;;;;;;;0.70;0.50;;;11.30;80.50;;;;;;4920741;29;20457;-81
2022/11/04 06:31:16;;;;;;;0.60;0.53;;;11.20;80.70;;;;;;4920948;29;20484;-81
2022/11/04 06:33:43;;;;;;;0.60;0.60;;;11.30;81.00;;;;;;4921834;29;20460;-81
2022/11/04 06:36:13;;;;;;;0.60;0.60;;;11.30;81.20;;;;;;4918632;29;20445;-82
2022/11/04 06:38:40;;;;;;;0.70;0.50;;;11.20;81.00;;;;;;4920865;29;20462;-81
2022/11/04 06:41:10;;;;;;;0.70;0.50;;;11.20;81.10;;;;;;4920563;29;20476;-81
2022/11/04 06:43:37;;;;;;;0.60;0.53;;;11.30;81.00;;;;;;4921560;29;20453;-81
2022/11/04 06:46:05;;;;;;;0.60;0.60;;;11.20;81.40;;;;;;4920924;29;20457;-81
2022/11/04 06:48:32;;;;;;;0.60;0.57;;;11.10;81.70;;;;;;4919336;29;20953;-78
2022/11/04 06:50:59;;;;;;;0.70;0.60;;;11.10;81.90;;;;;;4917391;29;20976;-81
2022/11/04 06:53:26;;;;;;;0.70;0.70;;;10.90;82.40;;;;;;4917036;29;20821;-79
2022/11/04 06:55:53;;;;;;;0.60;0.60;;;10.90;82.80;;;;;;4917197;29;20527;-80
2022/11/04 06:58:20;;;;;;;0.70;0.70;;;11.00;82.80;;;;;;4917159;29;20453;-80
2022/11/04 07:00:52;;;;;;;0.60;0.60;;;11.00;82.80;;;;;;4916405;29;20488;-79
2022/11/04 07:03:20;;;;;;;0.73;0.60;;;11.00;82.70;;;;;;4917139;29;20446;-79
2022/11/04 07:05:47;;;;;;;0.60;0.60;;;11.00;83.10;;;;;;4917391;29;20453;-79
2022/11/04 07:08:13;;;;;;;0.70;0.70;;;11.00;82.80;;;;;;4917306;29;20815;-79
2022/11/04 07:10:41;;;;;;;0.70;0.60;;;11.00;83.10;;;;;;4916197;29;20456;-79
2022/11/04 07:13:07;;;;;;;0.70;0.70;;;11.10;83.00;;;;;;4916922;29;20988;-80
2022/11/04 07:15:34;;;;;;;0.60;0.60;;;11.10;83.10;;;;;;4916907;29;20453;-78
2022/11/04 07:18:01;;;;;;;0.60;0.60;;;11.10;82.60;;;;;;4918218;29;20457;-80
2022/11/04 07:20:29;;;;;;;0.60;0.60;;;10.90;83.20;;;;;;4918944;29;20464;-79
2022/11/04 07:22:56;;;;;;;0.60;0.57;;;11.00;83.30;;;;;;4916790;29;20525;-80
2022/11/04 07:25:23;;;;;;;0.80;0.60;;;11.10;83.00;;;;;;4917271;29;20952;-79
2022/11/04 07:27:49;;;;;;;0.60;0.60;;;11.20;83.20;;;;;;4917854;29;20481;-80
2022/11/04 07:30:18;;;;;;;0.60;0.57;;;11.10;83.00;;;;;;4915740;29;20449;-79
2022/11/04 07:32:44;;;;;;;0.60;0.50;;;11.00;83.10;;;;;;4917168;29;20492;-77
2022/11/04 07:35:11;;;;;;;0.60;0.50;;;10.90;83.90;;;;;;4916507;29;20515;-81
2022/11/04 07:37:39;;;;;;;0.60;0.60;;;10.90;83.90;;;;;;4917347;29;20463;-79
2022/11/04 07:40:07;;;;;;;0.60;0.53;;;10.90;85.00;;;;;;4915804;29;20527;-79
2022/11/04 07:42:34;;;;;;;0.60;0.60;;;11.00;84.40;;;;;;4916588;29;20544;-79
2022/11/04 07:45:01;;;;;;;1.07;0.60;;;11.10;84.10;;;;;;4916724;29;20475;-80
2022/11/04 07:47:29;;;;;;;1.10;0.60;;;11.10;83.80;;;;;;4918146;29;20464;-79
2022/11/04 07:49:56;;;;;;;0.70;0.60;;;11.10;83.40;;;;;;4916277;29;20460;-79
2022/11/04 07:52:23;;;;;;;0.77;0.60;;;10.90;83.70;;;;;;4915714;29;20488;-79
2022/11/04 07:54:51;;;;;;;0.60;0.50;;;10.70;84.40;;;;;;4917483;29;20457;-80
2022/11/04 07:57:18;;;;;;;0.70;0.60;;;10.70;84.90;;;;;;4916142;29;20452;-79
2022/11/04 07:59:45;;;;;;;1.13;0.50;;;10.70;84.70;;;;;;4916074;29;20456;-80
2022/11/04 08:02:12;;;;;;;0.60;0.50;;;10.70;84.70;;;;;;4916316;29;20477;-79
2022/11/04 08:04:39;;;;;;;0.60;0.50;;;10.70;84.60;;;;;;4915487;29;20457;-79
2022/11/04 08:07:08;;;;;;;0.60;0.50;;;10.50;85.20;;;;;;4915354;29;20453;-78
2022/11/04 08:09:35;;;;;;;0.60;0.50;;;10.60;85.20;;;;;;4914835;29;20956;-78
2022/11/04 08:12:04;;;;;;;0.60;0.60;;;10.70;85.20;;;;;;4915327;29;20493;-79
2022/11/04 08:14:31;;;;;;;0.60;0.60;;;10.80;84.90;;;;;;4915407;29;20527;-78
2022/11/04 08:16:58;;;;;;;0.60;0.50;;;10.80;84.40;;;;;;4914843;29;20453;-78
2022/11/04 08:19:25;;;;;;;0.60;0.60;;;10.80;84.10;;;;;;4914731;29;20453;-78
2022/11/04 08:21:52;;;;;;;0.60;0.60;;;10.80;84.60;;;;;;4915192;29;20901;-79
2022/11/04 08:24:19;;;;;;;0.60;0.50;;;10.80;83.80;;;;;;4915823;29;20456;-79
2022/11/04 08:26:46;;;;;;;0.60;0.60;;;10.70;84.70;;;;;;4915323;29;20457;-79
2022/11/04 08:29:14;;;;;;;0.60;0.53;;;10.70;85.10;;;;;;4915817;29;20460;-78
2022/11/04 08:31:41;;;;;;;1.77;0.90;;;10.80;85.10;;;;;;4914814;29;20492;-78
2022/11/04 08:34:08;;;;;;;0.70;0.60;;;10.90;85.20;;;;;;4914732;29;20449;-78
2022/11/04 08:36:37;;;;;;;0.60;0.50;;;10.80;85.00;;;;;;4914734;29;20540;-78
2022/11/04 08:39:04;;;;;;;0.60;0.50;;;10.80;85.40;;;;;;4914648;29;20449;-79
2022/11/04 08:41:33;;;;;;;0.70;0.67;;;10.80;85.30;;;;;;4914248;29;20992;-78
2022/11/04 08:44:02;;;;;;;1.17;0.70;;;10.80;85.90;;;;;;4914728;29;20453;-78
2022/11/04 08:46:33;;;;;;;0.60;0.50;;;11.20;85.50;;;;;;4914553;29;20457;-78
2022/11/04 08:49:00;;;;;;;0.63;0.60;;;11.50;84.70;;;;;;4914354;29;20449;-79
2022/11/04 08:51:29;;;;;;;0.60;0.50;;;11.50;82.40;;;;;;4914833;29;20472;-79
2022/11/04 08:53:56;;;;;;;0.60;0.60;;;11.60;82.90;;;;;;4914664;29;20453;-78
2022/11/04 08:56:25;;;;;;;0.60;0.60;;;11.70;81.60;;;;;;4914848;29;20452;-78
2022/11/04 08:58:53;;;;;;;0.60;0.50;;;11.60;82.70;;;;;;4914282;28;20825;-79
2022/11/04 09:01:20;;;;;;;0.60;0.50;;;11.60;81.40;;;;;;4914372;29;20583;-79
2022/11/04 09:03:50;;;;;;;0.77;0.60;;;11.50;82.40;;;;;;4915922;29;20452;-79
2022/11/04 09:06:19;;;;;;;0.60;0.50;;;11.50;81.70;;;;;;4915816;29;20457;-79
2022/11/04 09:08:46;;;;;;;1.17;0.60;;;11.40;81.20;;;;;;4915857;29;20452;-79
2022/11/04 09:11:15;;;;;;;0.70;0.70;;;11.30;82.00;;;;;;4915437;29;20473;-79
2022/11/04 09:13:42;;;;;;;0.83;0.60;;;11.30;81.90;;;;;;4916747;29;20535;-79
2022/11/04 09:16:11;;;;;;;0.70;0.57;;;11.40;81.60;;;;;;4918823;29;20453;-79
2022/11/04 09:18:38;;;;;;;0.70;0.70;;;11.30;82.10;;;;;;4919051;29;20460;-79
2022/11/04 09:21:09;;;;;;;1.00;0.90;;;11.40;82.40;;;;;;4918752;29;20473;-78
2022/11/04 09:23:36;;;;;;;0.70;0.60;;;11.30;81.90;;;;;;4919984;29;20436;-79
2022/11/04 09:26:08;;;;;;;0.60;0.60;;;11.30;82.90;;;;;;4919721;29;20453;-78
2022/11/04 09:28:35;;;;;;;0.60;0.60;;;11.50;82.00;;;;;;4920163;29;20461;-78
2022/11/04 09:31:06;;;;;;;0.60;0.60;;;11.60;81.70;;;;;;4918972;29;20499;-79
2022/11/04 09:33:33;;;;;;;0.80;0.60;;;11.70;80.30;;;;;;4918942;29;20485;-80
2022/11/04 09:36:00;;;;;;;0.60;0.60;;;11.70;80.50;;;;;;4919059;29;20515;-79
2022/11/04 09:38:29;;;;;;;0.70;0.60;;;11.60;80.80;;;;;;4920366;29;20839;-79
2022/11/04 09:40:56;;;;;;;0.60;0.60;;;11.50;81.40;;;;;;4921786;29;20480;-79
2022/11/04 09:43:32;;;;;;;0.80;0.80;;;11.40;81.30;;;;;;4919039;29;20456;-78
2022/11/04 09:46:00;;;;;;;0.60;0.60;;;11.40;81.40;;;;;;4918179;29;20441;-78
2022/11/04 09:48:31;;;;;;;0.80;0.57;;;11.30;82.00;;;;;;4918425;29;20467;-80
2022/11/04 09:51:02;;;;;;;0.60;0.60;;;11.40;82.80;;;;;;4922994;29;20476;-80
2022/11/04 09:53:39;;;;;;;0.60;0.60;;;11.40;81.30;;;;;;4922766;29;20924;-80
2022/11/04 09:56:13;;;;;;;0.60;0.60;;;11.30;82.20;;;;;;4922665;29;20445;-79
2022/11/04 09:58:40;;;;;;;0.60;0.60;;;11.50;83.20;;;;;;4920312;29;20928;-80
2022/11/04 10:01:17;;;;;;;0.70;0.70;;;11.40;82.40;;;;;;4919693;29;20583;-78
2022/11/04 10:03:59;;;;;;;0.70;0.60;;;11.60;81.20;;;;;;4919358;29;20922;-79
2022/11/04 10:06:37;;;;;;;0.60;0.60;;;11.90;82.00;;;;;;4920147;28;20452;-79
2022/11/04 10:09:24;;;;;;;0.60;0.60;;;12.20;80.90;;;;;;4920114;28;20433;-80
2022/11/04 10:12:05;;;;;;;0.70;0.70;;;12.40;77.90;;;;;;4921902;29;20472;-80
2022/11/04 10:15:05;;;;;;;0.60;0.60;;;12.40;77.80;;;;;;4923290;29;20433;-79
2022/11/04 10:17:47;;;;;;;0.70;0.60;;;12.50;78.10;;;;;;4923579;29;20429;-81
2022/11/04 10:20:31;;;;;;;0.70;0.70;;;12.40;76.90;;;;;;4925770;29;20449;-80
2022/11/04 10:22:59;;;;;;;0.60;0.53;;;12.40;76.20;;;;;;4922480;29;20430;-80
2022/11/04 10:25:34;;;;;;;1.33;0.63;;;12.30;76.50;;;;;;4919803;29;20441;-80
2022/11/04 10:28:03;;;;;;;0.70;0.70;;;12.30;77.50;;;;;;4924212;29;20436;-80
2022/11/04 10:30:30;;;;;;;0.60;0.60;;;12.20;77.10;;;;;;4919391;29;20460;-78
2022/11/04 10:33:04;;;;;;;0.60;0.50;;;12.30;76.70;;;;;;4922570;29;20495;-79
2022/11/04 10:35:35;;;;;;;0.60;0.50;;;12.40;77.10;;;;;;4923860;29;20450;-79
2022/11/04 10:38:15;;;;;;;0.80;0.60;;;12.30;76.20;;;;;;4926847;29;20464;-81
2022/11/04 10:40:46;;;;;;;0.60;0.50;;;12.40;76.80;;;;;;4921760;29;20440;-80
2022/11/04 10:43:17;;;;;;;0.70;0.70;;;12.20;76.00;;;;;;4919200;29;20442;-79
2022/11/04 10:45:52;;;;;;;0.60;0.60;;;12.20;76.10;;;;;;4918983;29;20449;-80
2022/11/04 10:48:27;;;;;;;0.60;0.50;;;12.20;76.00;;;;;;4920729;29;20773;-80
2022/11/04 10:50:55;;;;;;;0.60;0.60;;;12.30;74.60;;;;;;4922590;29;20472;-81
2022/11/04 10:53:25;;;;;;;1.13;0.70;;;12.30;75.00;;;;;;4921346;29;20492;-79
2022/11/04 10:56:01;;;;;;;0.70;0.60;;;12.20;74.60;;;;;;4921685;29;20453;-80
2022/11/04 10:58:30;;;;;;;0.60;0.50;;;12.40;74.80;;;;;;4922903;29;20445;-80
2022/11/04 11:00:58;;;;;;;0.60;0.50;;;12.40;75.20;;;;;;4918918;29;20480;-80
2022/11/04 11:03:28;;;;;;;0.57;0.50;;;12.50;75.20;;;;;;4918532;29;20905;-80
2022/11/04 11:06:11;;;;;;;0.60;0.60;;;12.50;74.30;;;;;;4918615;29;20437;-80
2022/11/04 11:08:38;;;;;;;0.60;0.60;;;12.50;74.70;;;;;;4919293;29;20945;-78
2022/11/04 11:11:07;;;;;;;0.80;0.80;;;12.40;75.50;;;;;;4916911;29;20480;-77
2022/11/04 11:13:37;;;;;;;0.60;0.53;;;12.60;76.40;;;;;;4916864;29;20492;-80
2022/11/04 11:16:12;;;;;;;0.50;0.50;;;12.60;74.10;;;;;;4920846;29;20452;-81
2022/11/04 11:18:40;;;;;;;0.60;0.60;;;12.50;74.30;;;;;;4923433;29;20516;-81
2022/11/04 11:21:12;;;;;;;0.60;0.60;;;12.70;74.60;;;;;;4919315;29;20504;-80
2022/11/04 11:23:42;;;;;;;0.87;0.70;;;12.50;74.00;;;;;;4921096;29;20505;-80
2022/11/04 11:26:13;;;;;;;0.63;0.60;;;12.70;75.10;;;;;;4919517;29;20441;-80
2022/11/04 11:28:41;;;;;;;0.70;0.50;;;12.70;72.70;;;;;;4920066;29;20438;-79
2022/11/04 11:31:22;;;;;;;0.70;0.67;;;12.60;73.80;;;;;;4920976;29;20843;-78
2022/11/04 11:33:52;;;;;;;0.50;0.50;;;12.80;74.50;;;;;;4920684;29;20468;-82
2022/11/04 11:36:22;;;;;;;0.60;0.60;;;12.80;75.50;;;;;;4919448;29;20437;-81
2022/11/04 11:38:59;;;;;;;0.70;0.60;;;12.90;74.10;;;;;;4918663;29;20505;-80
2022/11/04 11:41:31;;;;;;;0.60;0.60;;;12.90;71.50;;;;;;4920074;29;20504;-81
2022/11/04 11:44:07;;;;;;;0.60;0.60;;;12.70;72.20;;;;;;4921366;29;20441;-81
2022/11/04 11:46:36;;;;;;;0.70;0.60;;;13.00;73.20;;;;;;4920758;29;20441;-82
2022/11/04 11:49:05;;;;;;;0.80;0.80;;;13.20;73.10;;;;;;4921161;29;20456;-81
2022/11/04 11:51:34;;;;;;;0.70;0.67;;;13.10;73.90;;;;;;4924760;29;20480;-80
2022/11/04 11:54:17;;;;;;;0.63;0.60;;;13.00;71.70;;;;;;4922288;29;20500;-80
2022/11/04 11:56:49;;;;;;;0.60;0.60;;;13.20;73.40;;;;;;4935886;28;20465;-80
2022/11/04 11:59:28;;;;;;;1.00;0.70;;;13.50;72.00;;;;;;4924056;29;20437;-80
2022/11/04 12:02:14;;;;;;;0.70;0.60;;;13.60;71.00;;;;;;4920890;29;20492;-79
2022/11/04 12:04:41;;;;;;;0.70;0.70;;;13.90;69.90;;;;;;4921864;29;20444;-80
2022/11/04 12:07:19;;;;;;;0.70;0.70;;;14.30;69.90;;;;;;4916915;29;20484;-77
2022/11/04 12:09:52;;;;;;;0.70;0.70;;;14.40;69.30;;;;;;4920254;29;20436;-80
2022/11/04 12:12:34;;;;;;;0.80;0.70;;;14.50;70.00;;;;;;4920682;29;20465;-78
2022/11/04 12:15:18;;;;;;;0.80;0.60;;;14.40;69.20;;;;;;4915224;29;20433;-78
2022/11/04 12:17:58;;;;;;;0.70;0.60;;;14.00;71.30;;;;;;4915079;29;20967;-79
2022/11/04 12:20:35;;;;;;;0.60;0.60;;;13.70;71.70;;;;;;4922656;29;20920;-80
2022/11/04 12:23:16;;;;;;;1.13;0.67;;;13.60;71.50;;;;;;4921961;29;20429;-79
2022/11/04 12:25:49;;;;;;;0.60;0.60;;;13.40;72.30;;;;;;4918990;29;20441;-79
2022/11/04 12:28:27;;;;;;;0.80;0.70;;;13.60;73.00;;;;;;4919690;29;20434;-79
2022/11/04 12:31:10;;;;;;;0.70;0.70;;;13.80;72.20;;;;;;4917406;29;20543;-80
2022/11/04 12:33:45;;;;;;;0.93;0.70;;;13.80;70.80;;;;;;4918684;29;20519;-80
2022/11/04 12:36:29;;;;;;;0.90;0.80;;;13.60;71.50;;;;;;4917501;29;20524;-79
2022/11/04 12:39:19;;;;;;;0.63;0.63;;;13.70;72.10;;;;;;4916910;29;21028;-78
2022/11/04 12:41:55;;;;;;;0.60;0.60;;;13.60;71.40;;;;;;4918547;29;20500;-80
2022/11/04 12:44:32;;;;;;;0.97;0.70;;;13.60;71.10;;;;;;4919590;29;20491;-80
2022/11/04 12:47:10;;;;;;;0.60;0.60;;;13.40;71.50;;;;;;4919872;29;20448;-79
2022/11/04 12:49:53;;;;;;;1.57;0.70;;;13.50;72.20;;;;;;4918192;29;20464;-79
2022/11/04 12:52:31;;;;;;;0.60;0.60;;;13.70;72.10;;;;;;4917922;28;20481;-79
2022/11/04 12:55:09;;;;;;;0.70;0.70;;;13.90;72.20;;;;;;4919108;29;20438;-79
2022/11/04 12:57:43;;;;;;;0.70;0.60;;;13.90;71.90;;;;;;4918631;29;20501;-79
2022/11/04 13:00:14;;;;;;;0.73;0.67;;;14.20;71.00;;;;;;4918853;29;20935;-79
2022/11/04 13:02:46;;;;;;;0.80;0.80;;;14.40;70.40;;;;;;4919474;29;20909;-78
2022/11/04 13:05:28;;;;;;;0.60;0.60;;;14.60;69.60;;;;;;4917957;29;20472;-78
2022/11/04 13:08:02;;;;;;;0.83;0.83;;;14.90;68.10;;;;;;4916621;29;20496;-79
2022/11/04 13:10:38;;;;;;;0.73;0.73;;;15.00;68.30;;;;;;4918759;29;20531;-79
2022/11/04 13:13:07;;;;;;;1.90;1.80;;;15.30;67.70;;;;;;4915857;29;20488;-78
2022/11/04 13:15:45;;;;;;;2.50;2.40;;;15.60;66.30;;;;;;4916302;29;20538;-78
2022/11/04 13:18:17;;;;;;;0.90;0.70;;;16.50;64.50;;;;;;4916044;29;20441;-79
2022/11/04 13:20:50;;;;;;;0.60;0.60;;;18.40;60.30;;;;;;4918819;29;20535;-78
2022/11/04 13:23:23;;;;;;;1.10;0.60;;;21.10;54.20;;;;;;4920407;29;20507;-80
2022/11/04 13:25:52;;;;;;;0.60;0.60;;;22.30;51.10;;;;;;4921601;29;20441;-79
2022/11/04 13:28:34;;;;;;;0.90;0.80;;;22.10;50.30;;;;;;4922838;29;20516;-81
2022/11/04 13:31:07;;;;;;;0.70;0.70;;;21.80;51.80;;;;;;4921750;28;20477;-79
2022/11/04 13:33:47;;;;;;;0.60;0.60;;;21.00;52.90;;;;;;4919457;29;20552;-79
2022/11/04 13:36:25;;;;;;;0.60;0.60;;;20.20;54.20;;;;;;4919760;29;20535;-79
2022/11/04 13:38:57;;;;;;;0.60;0.60;;;19.60;55.70;;;;;;4918773;29;20473;-79
2022/11/04 13:41:39;;;;;;;0.60;0.60;;;19.30;57.00;;;;;;4919469;29;20477;-79
2022/11/04 13:44:14;;;;;;;1.43;0.60;;;18.40;57.40;;;;;;4920546;29;20862;-80
2022/11/04 13:46:49;;;;;;;0.53;0.50;;;17.60;59.10;;;;;;4922308;29;20440;-80
2022/11/04 13:49:22;;;;;;;0.60;0.60;;;16.90;61.40;;;;;;4916971;29;20461;-78
2022/11/04 13:52:02;;;;;;;0.60;0.50;;;16.10;63.80;;;;;;4917380;29;20572;-79
2022/11/04 13:54:31;;;;;;;0.70;0.70;;;15.40;65.80;;;;;;4918261;29;20495;-80
2022/11/04 13:57:12;;;;;;;0.67;0.67;;;14.70;69.00;;;;;;4919198;28;20467;-80
2022/11/04 13:59:39;;;;;;;0.70;0.70;;;14.40;71.30;;;;;;4921985;29;20824;-79
2022/11/04 14:02:42;;;;;;;0.70;0.60;;;14.00;72.60;;;;;;4923770;29;20520;-79
2022/11/04 14:05:52;;;;;;;0.60;0.50;;;13.70;73.30;;;;;;4980806;28;20502;-79
2022/11/04 14:08:20;;;;;;;0.60;0.57;;;13.60;74.60;;;;;;4980875;28;20441;-79
2022/11/04 14:11:03;;;;;;;0.60;0.60;;;13.50;74.90;;;;;;4934938;28;20465;-80
2022/11/04 14:13:45;;;;;;;0.60;0.50;;;13.50;75.00;;;;;;4917757;29;20476;-78
2022/11/04 14:16:32;;;;;;;0.60;0.60;;;13.50;75.00;;;;;;4922144;29;20528;-80
2022/11/04 14:19:47;;;;;;;0.60;0.60;;;13.40;75.00;;;;;;4919020;29;20818;-77
2022/11/04 14:22:17;;;;;;;0.60;0.60;;;13.40;75.10;;;;;;4896195;29;20852;-78
2022/11/04 14:24:44;;;;;;;0.60;0.50;;;13.40;75.20;;;;;;4917537;29;20491;-78
2022/11/04 14:27:26;;;;;;;0.70;0.60;;;13.40;75.10;;;;;;4918298;29;20453;-79
2022/11/04 14:29:53;;;;;;;0.60;0.50;;;13.20;75.00;;;;;;4921253;29;20433;-79
2022/11/04 14:32:25;;;;;;;0.60;0.60;;;13.00;75.10;;;;;;4922546;29;20479;-79
2022/11/04 14:35:00;;;;;;;0.63;0.63;;;12.90;75.70;;;;;;4922171;29;20524;-79
2022/11/04 14:37:32;;;;;;;0.60;0.50;;;12.90;76.40;;;;;;4924837;29;20508;-80
2022/11/04 14:40:01;;;;;;;0.60;0.50;;;12.90;77.00;;;;;;4925513;28;20497;-78
2022/11/04 14:42:49;;;;;;;0.60;0.60;;;12.90;77.30;;;;;;4925619;29;20988;-81
2022/11/04 14:45:20;;;;;;;0.60;0.57;;;12.90;77.20;;;;;;4926983;28;20426;-80
2022/11/04 14:47:51;;;;;;;0.70;0.60;;;12.90;77.30;;;;;;4926727;29;20437;-80
2022/11/04 14:50:21;;;;;;;0.60;0.60;;;12.80;77.70;;;;;;4926361;29;20475;-79
2022/11/04 14:52:53;;;;;;;0.63;0.63;;;12.80;78.10;;;;;;4924706;29;20547;-81
2022/11/04 14:55:22;;;;;;;0.60;0.60;;;12.80;78.30;;;;;;4924258;29;20980;-80
2022/11/04 14:57:51;;;;;;;0.60;0.50;;;12.90;78.70;;;;;;4920661;29;20461;-80
2022/11/04 15:00:29;;;;;;;0.70;0.70;;;13.00;78.70;;;;;;4923253;29;20559;-79
2022/11/04 15:03:12;;;;;;;0.60;0.57;;;13.00;79.10;;;;;;4919976;29;20845;-77
2022/11/04 15:05:40;;;;;;;0.60;0.60;;;13.10;79.20;;;;;;4917633;29;20455;-79
2022/11/04 15:08:30;;;;;;;0.60;0.60;;;13.20;78.70;;;;;;4917683;29;20468;-78
2022/11/04 15:10:59;;;;;;;0.70;0.50;;;13.30;78.40;;;;;;4915814;29;20473;-77
2022/11/04 15:13:26;;;;;;;0.60;0.60;;;13.40;77.90;;;;;;4918651;29;20449;-81
2022/11/04 15:15:55;;;;;;;0.60;0.50;;;13.50;77.80;;;;;;4922761;29;20449;-80
2022/11/04 15:18:25;;;;;;;0.70;0.70;;;13.60;77.60;;;;;;4922255;29;20453;-81
2022/11/04 15:20:54;;;;;;;0.90;0.70;;;13.60;77.50;;;;;;4921280;29;20544;-80
2022/11/04 15:23:27;;;;;;;0.90;0.60;;;13.70;76.80;;;;;;4920411;29;20453;-80
2022/11/04 15:25:57;;;;;;;0.60;0.60;;;13.70;76.40;;;;;;4921756;29;20901;-81
2022/11/04 15:28:27;;;;;;;0.60;0.60;;;13.70;76.20;;;;;;4921514;29;20478;-80
2022/11/04 15:31:00;;;;;;;0.60;0.50;;;13.70;76.30;;;;;;4919938;29;20588;-78
2022/11/04 15:33:27;;;;;;;0.60;0.60;;;13.70;76.10;;;;;;4919076;29;20453;-79
2022/11/04 15:35:55;;;;;;;0.60;0.60;;;13.70;76.30;;;;;;4918811;29;20461;-81
2022/11/04 15:38:25;;;;;;;0.60;0.50;;;13.60;76.20;;;;;;4920343;29;20457;-82
2022/11/04 15:40:52;;;;;;;0.80;0.60;;;13.60;76.20;;;;;;4922187;29;20480;-82
2022/11/04 15:43:19;;;;;;;0.70;0.70;;;13.50;75.90;;;;;;4920214;29;20453;-80
2022/11/04 15:45:51;;;;;;;0.60;0.60;;;13.40;76.00;;;;;;4920311;29;20445;-78
2022/11/04 15:48:39;;;;;;;0.60;0.60;;;13.40;76.00;;;;;;4916352;29;20560;-79
2022/11/04 15:51:15;;;;;;;0.70;0.60;;;13.30;75.80;;;;;;4918262;29;20531;-80
2022/11/04 15:53:49;;;;;;;0.60;0.60;;;13.20;76.00;;;;;;4917769;29;20444;-79
2022/11/04 15:56:18;;;;;;;0.60;0.60;;;13.20;76.60;;;;;;4917000;29;20920;-79
2022/11/04 15:58:46;;;;;;;0.60;0.60;;;13.10;76.80;;;;;;4916875;29;20457;-79
2022/11/04 16:01:14;;;;;;;0.60;0.60;;;13.10;77.50;;;;;;4915717;29;20488;-79
2022/11/04 16:03:41;;;;;;;0.70;0.70;;;13.00;77.90;;;;;;4919346;29;20484;-80
2022/11/04 16:06:09;;;;;;;0.60;0.57;;;13.00;78.10;;;;;;4919431;29;20461;-80
2022/11/04 16:08:36;;;;;;;0.70;0.70;;;12.90;78.60;;;;;;4917872;29;20461;-79
2022/11/04 16:11:14;;;;;;;0.60;0.60;;;12.80;78.90;;;;;;4923104;29;20826;-80
2022/11/04 16:13:42;;;;;;;0.80;0.80;;;12.80;79.40;;;;;;4921031;29;20808;-81
2022/11/04 16:16:21;;;;;;;0.80;0.80;;;12.80;79.10;;;;;;4918443;29;20971;-79
2022/11/04 16:18:52;;;;;;;0.70;0.70;;;12.80;79.10;;;;;;4915812;29;20444;-80
2022/11/04 16:21:25;;;;;;;0.90;0.90;;;12.70;79.40;;;;;;4915980;29;20465;-79
2022/11/04 16:23:56;;;;;;;0.80;0.80;;;12.70;79.50;;;;;;4917743;29;20452;-80
2022/11/04 16:26:25;;;;;;;0.70;0.67;;;12.60;79.50;;;;;;4918765;29;20444;-79
2022/11/04 16:28:54;;;;;;;0.60;0.60;;;12.60;79.50;;;;;;4916188;29;20449;-79
2022/11/04 16:31:28;;;;;;;0.60;0.60;;;12.50;79.70;;;;;;4916010;29;20984;-79
2022/11/04 16:33:55;;;;;;;0.60;0.50;;;12.60;80.10;;;;;;4920340;29;20445;-79
2022/11/04 16:36:24;;;;;;;0.60;0.50;;;12.50;80.20;;;;;;4915846;29;20528;-79
2022/11/04 16:38:55;;;;;;;0.70;0.70;;;12.40;79.90;;;;;;4916196;29;20453;-79
2022/11/04 16:41:22;;;;;;;0.87;0.87;;;12.50;80.00;;;;;;4918552;29;20473;-79
2022/11/04 16:43:49;;;;;;;1.00;1.00;;;12.50;80.10;;;;;;4918888;29;20464;-79
2022/11/04 16:46:17;;;;;;;0.90;0.80;;;12.50;80.00;;;;;;4917455;29;20453;-80
2022/11/04 16:48:45;;;;;;;0.80;0.80;;;12.50;79.70;;;;;;4917487;29;20487;-79
2022/11/04 16:51:17;;;;;;;0.60;0.60;;;12.60;79.70;;;;;;4916892;29;20468;-80
2022/11/04 16:53:44;;;;;;;1.00;1.00;;;12.50;79.70;;;;;;4918461;29;20437;-80
2022/11/04 16:56:12;;;;;;;1.43;1.43;;;12.50;79.30;;;;;;4915189;29;20458;-79
2022/11/04 16:58:38;;;;;;;1.50;1.50;;;12.50;79.40;;;;;;4915293;29;20456;-78
2022/11/04 17:01:05;;;;;;;1.23;1.23;;;12.50;79.40;;;;;;4916052;29;20849;-80
2022/11/04 17:03:32;;;;;;;1.03;1.03;;;12.60;79.30;;;;;;4919764;29;20453;-80
2022/11/04 17:06:00;;;;;;;1.30;1.20;;;12.60;79.50;;;;;;4919062;29;20832;-80
2022/11/04 17:08:27;;;;;;;1.00;1.00;;;12.60;79.50;;;;;;4917811;29;20464;-81
2022/11/04 17:10:54;;;;;;;0.97;0.87;;;12.60;79.20;;;;;;4917338;29;20499;-80
2022/11/04 17:13:21;;;;;;;0.77;0.77;;;12.60;78.80;;;;;;4917105;29;20461;-80
2022/11/04 17:15:48;;;;;;;0.80;0.80;;;12.60;79.00;;;;;;4916498;29;20488;-80
2022/11/04 17:18:16;;;;;;;0.70;0.70;;;12.60;79.20;;;;;;4914755;29;20464;-80
2022/11/04 17:20:45;;;;;;;0.80;0.60;;;12.60;79.10;;;;;;4915779;29;20480;-79